createdAt,value
2023-08-14T00:01:57.096Z,15.50
2023-08-14T00:04:23.596Z,15.48
2023-08-14T00:06:50.082Z,15.44
2023-08-14T00:09:16.680Z,15.41
2023-08-14T00:11:43.222Z,15.40
2023-08-14T00:14:09.750Z,15.39
2023-08-14T00:16:36.298Z,15.36
2023-08-14T00:19:02.979Z,15.31
2023-08-14T00:21:29.776Z,15.27
2023-08-14T00:23:56.247Z,15.23
2023-08-14T00:26:22.713Z,15.08
2023-08-14T00:28:49.207Z,15.11
2023-08-14T00:31:17.914Z,15.11
2023-08-14T00:33:44.367Z,15.10
2023-08-14T00:36:10.803Z,15.10
2023-08-14T00:38:37.221Z,15.09
2023-08-14T00:41:03.846Z,15.08
2023-08-14T00:43:30.411Z,15.07
2023-08-14T00:45:57.479Z,15.07
2023-08-14T00:48:26.140Z,15.05
2023-08-14T00:50:54.758Z,15.02
2023-08-14T00:53:21.693Z,14.98
2023-08-14T00:55:48.654Z,14.93
2023-08-14T00:58:16.240Z,14.92
2023-08-14T01:00:44.163Z,14.91
2023-08-14T01:03:11.314Z,14.92
2023-08-14T01:05:38.006Z,14.92
2023-08-14T01:08:04.695Z,14.90
2023-08-14T01:11:00.053Z,14.87
2023-08-14T01:13:47.675Z,14.87
2023-08-14T01:16:20.730Z,14.86
2023-08-14T01:18:48.671Z,14.85
2023-08-14T01:21:18.223Z,14.83
2023-08-14T01:24:07.804Z,14.84
2023-08-14T01:26:35.590Z,14.82
2023-08-14T01:29:04.374Z,14.79
2023-08-14T01:31:31.351Z,14.77
2023-08-14T01:33:58.650Z,14.77
2023-08-14T01:36:33.760Z,14.79
2023-08-14T01:39:09.585Z,14.82
2023-08-14T01:42:19.079Z,14.78
2023-08-14T01:44:49.747Z,14.73
2023-08-14T01:47:19.631Z,14.71
2023-08-14T01:49:47.023Z,14.71
2023-08-14T01:52:13.730Z,14.66
2023-08-14T01:54:40.321Z,14.62
2023-08-14T01:57:06.867Z,14.58
2023-08-14T01:59:48.264Z,14.54
2023-08-14T02:02:15.304Z,14.54
2023-08-14T02:04:41.962Z,14.48
2023-08-14T02:07:10.824Z,14.41
2023-08-14T02:09:37.989Z,14.38
2023-08-14T02:12:04.919Z,14.36
2023-08-14T02:14:31.886Z,14.35
2023-08-14T02:16:58.468Z,14.32
2023-08-14T02:19:24.981Z,14.31
2023-08-14T02:21:51.461Z,14.27
2023-08-14T02:24:17.921Z,14.27
2023-08-14T02:26:44.394Z,14.23
2023-08-14T02:29:10.860Z,14.20
2023-08-14T02:31:37.457Z,14.17
2023-08-14T02:34:04.634Z,14.13
2023-08-14T02:36:31.078Z,14.08
2023-08-14T02:38:57.591Z,14.04
2023-08-14T02:41:24.085Z,14.03
2023-08-14T02:43:50.603Z,14.00
2023-08-14T02:46:17.313Z,13.98
2023-08-14T02:48:46.289Z,13.96
2023-08-14T02:51:12.838Z,13.94
2023-08-14T02:53:39.266Z,13.92
2023-08-14T02:56:05.760Z,13.89
2023-08-14T02:58:32.680Z,13.86
2023-08-14T03:00:59.268Z,13.84
2023-08-14T03:03:25.873Z,13.84
2023-08-14T03:05:52.486Z,13.81
2023-08-14T03:08:18.952Z,13.78
2023-08-14T03:10:45.416Z,13.76
2023-08-14T03:13:11.886Z,13.74
2023-08-14T03:15:38.410Z,13.73
2023-08-14T03:18:04.996Z,13.71
2023-08-14T03:20:31.539Z,13.69
2023-08-14T03:22:58.081Z,13.66
2023-08-14T03:25:24.668Z,13.65
2023-08-14T03:27:51.171Z,13.63
2023-08-14T03:30:17.764Z,13.59
2023-08-14T03:32:44.342Z,13.55
2023-08-14T03:35:11.109Z,13.53
2023-08-14T03:37:37.655Z,13.51
2023-08-14T03:40:04.512Z,13.49
2023-08-14T03:42:31.009Z,13.46
2023-08-14T03:44:57.494Z,13.43
2023-08-14T03:47:23.941Z,13.42
2023-08-14T03:49:50.508Z,13.44
2023-08-14T03:52:18.783Z,13.42
2023-08-14T03:54:45.472Z,13.41
2023-08-14T03:57:11.958Z,13.39
2023-08-14T03:59:38.503Z,13.36
2023-08-14T04:02:05.142Z,13.34
2023-08-14T04:04:31.624Z,13.33
2023-08-14T04:06:58.993Z,13.32
2023-08-14T04:09:25.603Z,13.34
2023-08-14T04:11:52.079Z,13.35
2023-08-14T04:14:18.537Z,13.34
2023-08-14T04:16:45.565Z,13.34
2023-08-14T04:19:15.812Z,13.36
2023-08-14T04:21:43.406Z,13.35
2023-08-14T04:24:10.583Z,13.37
2023-08-14T04:26:40.539Z,13.38
2023-08-14T04:29:08.652Z,13.39
2023-08-14T04:31:39.535Z,13.40
2023-08-14T04:34:06.639Z,13.43
2023-08-14T04:36:35.063Z,13.44
2023-08-14T04:39:02.455Z,13.46
2023-08-14T04:41:29.108Z,13.47
2023-08-14T04:43:55.916Z,13.51
2023-08-14T04:46:41.148Z,13.54
2023-08-14T04:49:15.880Z,13.58
2023-08-14T04:51:42.280Z,13.61
2023-08-14T04:54:08.921Z,13.64
2023-08-14T04:56:35.663Z,13.65
2023-08-14T04:59:02.151Z,13.71
2023-08-14T05:01:28.730Z,13.73
2023-08-14T05:03:55.266Z,13.73
2023-08-14T05:06:21.794Z,13.78
2023-08-14T05:08:48.578Z,13.83
2023-08-14T05:11:15.146Z,13.90
2023-08-14T05:13:45.373Z,13.95
2023-08-14T05:16:12.010Z,14.03
2023-08-14T05:18:38.708Z,14.06
2023-08-14T05:21:05.451Z,14.10
2023-08-14T05:23:31.901Z,14.20
2023-08-14T05:25:58.416Z,14.29
2023-08-14T05:28:24.980Z,14.38
2023-08-14T05:30:51.477Z,14.51
2023-08-14T05:33:18.041Z,14.58
2023-08-14T05:35:44.543Z,14.61
2023-08-14T05:38:11.064Z,14.66
2023-08-14T05:40:37.587Z,14.73
2023-08-14T05:43:07.993Z,14.77
2023-08-14T05:45:44.001Z,14.81
2023-08-14T05:48:11.610Z,14.85
2023-08-14T05:50:38.708Z,14.89
2023-08-14T05:53:06.111Z,14.94
2023-08-14T05:55:37.604Z,15.00
2023-08-14T05:58:04.538Z,15.07
2023-08-14T06:00:31.565Z,15.17
2023-08-14T06:02:58.415Z,15.21
2023-08-14T06:05:25.401Z,15.27
2023-08-14T06:07:53.673Z,15.30
2023-08-14T06:10:20.984Z,15.38
2023-08-14T06:12:50.134Z,15.48
2023-08-14T06:15:18.900Z,15.48
2023-08-14T06:17:45.537Z,15.49
2023-08-14T06:20:12.605Z,15.50
2023-08-14T06:22:45.011Z,15.49
2023-08-14T06:25:15.318Z,15.59
2023-08-14T06:27:42.440Z,15.72
2023-08-14T06:30:11.930Z,15.86
2023-08-14T06:32:39.333Z,16.21
2023-08-14T06:35:07.196Z,16.82
2023-08-14T06:37:34.012Z,16.64
2023-08-14T06:40:00.571Z,16.52
2023-08-14T06:42:27.185Z,16.70
2023-08-14T06:44:53.733Z,17.04
2023-08-14T06:47:20.327Z,17.20
2023-08-14T06:49:46.827Z,17.23
2023-08-14T06:52:14.840Z,17.17
2023-08-14T06:54:41.457Z,17.36
2023-08-14T06:57:09.103Z,17.51
2023-08-14T06:59:36.205Z,17.82
2023-08-14T07:02:02.926Z,18.14
2023-08-14T07:04:29.532Z,18.42
2023-08-14T07:06:56.087Z,18.61
2023-08-14T07:09:22.974Z,18.63
2023-08-14T07:11:49.925Z,18.80
2023-08-14T07:14:16.477Z,18.92
2023-08-14T07:16:43.200Z,18.96
2023-08-14T07:19:09.990Z,19.10
2023-08-14T07:21:36.586Z,19.10
2023-08-14T07:24:03.434Z,19.22
2023-08-14T07:26:30.402Z,19.19
2023-08-14T07:28:56.884Z,19.13
2023-08-14T07:31:24.041Z,19.05
2023-08-14T07:33:50.585Z,19.28
2023-08-14T07:36:17.214Z,19.66
2023-08-14T07:38:43.746Z,20.10
2023-08-14T07:41:10.322Z,20.37
2023-08-14T07:43:36.763Z,20.24
2023-08-14T07:46:03.231Z,20.27
2023-08-14T07:48:29.788Z,20.39
2023-08-14T07:50:56.294Z,20.67
2023-08-14T07:53:22.915Z,20.91
2023-08-14T07:55:49.966Z,20.88
2023-08-14T07:58:17.421Z,20.78
2023-08-14T08:00:44.662Z,20.95
2023-08-14T08:03:11.218Z,21.25
2023-08-14T08:05:38.291Z,21.55
2023-08-14T08:08:05.694Z,21.81
2023-08-14T08:10:32.544Z,21.89
2023-08-14T08:12:59.056Z,22.01
2023-08-14T08:15:25.679Z,22.18
2023-08-14T08:17:52.370Z,22.15
2023-08-14T08:20:19.332Z,22.34
2023-08-14T08:22:45.906Z,22.46
2023-08-14T08:25:12.526Z,22.69
2023-08-14T08:27:39.152Z,22.89
2023-08-14T08:30:06.237Z,23.06
2023-08-14T08:32:32.850Z,23.13
2023-08-14T08:34:59.569Z,22.98
2023-08-14T08:37:26.179Z,23.22
2023-08-14T08:39:53.859Z,23.56
2023-08-14T08:42:21.244Z,23.77
2023-08-14T08:44:50.797Z,23.79
2023-08-14T08:47:22.747Z,23.82
2023-08-14T08:49:49.688Z,23.79
2023-08-14T08:52:16.799Z,23.85
2023-08-14T08:54:43.738Z,23.98
2023-08-14T08:57:10.307Z,24.21
2023-08-14T08:59:39.432Z,24.70
2023-08-14T09:02:05.957Z,24.74
2023-08-14T09:04:32.576Z,24.40
2023-08-14T09:06:59.094Z,24.42
2023-08-14T09:09:25.671Z,24.85
2023-08-14T09:11:52.237Z,25.29
2023-08-14T09:14:18.978Z,25.53
2023-08-14T09:16:45.822Z,25.70
2023-08-14T09:19:16.034Z,25.67
2023-08-14T09:21:44.881Z,25.91
2023-08-14T09:24:13.754Z,26.39
2023-08-14T09:26:43.805Z,26.48
2023-08-14T09:29:13.057Z,26.70
2023-08-14T09:31:44.473Z,26.61
2023-08-14T09:34:17.902Z,26.55
2023-08-14T09:36:44.837Z,26.57
2023-08-14T09:39:11.733Z,26.99
2023-08-14T09:41:38.229Z,27.22
2023-08-14T09:44:05.108Z,26.91
2023-08-14T09:46:32.492Z,26.93
2023-08-14T09:48:59.144Z,27.10
2023-08-14T09:51:25.703Z,26.95
2023-08-14T09:53:57.575Z,26.45
2023-08-14T09:56:25.184Z,26.57
2023-08-14T09:58:53.838Z,26.46
2023-08-14T10:01:22.232Z,26.68
2023-08-14T10:03:53.739Z,26.66
2023-08-14T10:06:25.706Z,26.71
2023-08-14T10:08:56.730Z,26.79
2023-08-14T10:11:27.506Z,26.24
2023-08-14T10:13:58.343Z,26.23
2023-08-14T10:16:28.838Z,26.20
2023-08-14T10:18:57.410Z,26.31
2023-08-14T10:21:31.269Z,26.47
2023-08-14T10:24:00.464Z,26.73
2023-08-14T10:26:28.197Z,26.65
2023-08-14T10:28:57.217Z,26.85
2023-08-14T10:31:24.231Z,26.99
2023-08-14T10:33:51.249Z,26.95
2023-08-14T10:36:21.924Z,26.82
2023-08-14T10:41:22.884Z,25.77
2023-08-14T10:43:51.747Z,25.83
2023-08-14T10:46:18.735Z,25.99
2023-08-14T10:48:49.740Z,26.75
2023-08-14T10:51:21.732Z,26.91
2023-08-14T10:53:48.654Z,27.18
2023-08-14T10:56:15.277Z,27.15
2023-08-14T10:58:48.933Z,26.72
2023-08-14T11:01:16.123Z,26.56
2023-08-14T11:03:55.892Z,26.37
2023-08-14T11:07:00.929Z,26.67
2023-08-14T11:09:32.152Z,27.11
2023-08-14T11:12:02.985Z,26.59
2023-08-14T11:14:29.491Z,26.83
2023-08-14T11:16:57.191Z,26.95
2023-08-14T11:19:23.737Z,26.86
2023-08-14T11:21:50.425Z,26.63
2023-08-14T11:24:17.399Z,26.85
2023-08-14T11:26:43.872Z,27.14
2023-08-14T11:29:10.357Z,27.17
2023-08-14T11:31:42.068Z,26.49
2023-08-14T11:34:15.666Z,26.55
2023-08-14T11:37:06.416Z,27.05
2023-08-14T11:39:34.677Z,27.43
2023-08-14T11:42:03.088Z,27.49
2023-08-14T11:44:29.705Z,27.46
2023-08-14T11:46:57.538Z,27.78
2023-08-14T11:49:25.360Z,28.07
2023-08-14T11:51:53.299Z,28.38
2023-08-14T11:54:20.157Z,28.50
2023-08-14T11:56:48.622Z,28.58
2023-08-14T11:59:16.946Z,28.28
2023-08-14T12:01:43.530Z,28.14
2023-08-14T12:04:11.393Z,27.76
2023-08-14T12:06:37.949Z,27.54
2023-08-14T12:09:09.011Z,27.45
2023-08-14T12:11:38.158Z,27.28
2023-08-14T12:14:06.475Z,27.54
2023-08-14T12:16:33.100Z,27.79
2023-08-14T12:18:59.644Z,27.46
2023-08-14T12:21:30.005Z,27.59
2023-08-14T12:23:56.550Z,28.00
2023-08-14T12:26:23.666Z,27.78
2023-08-14T12:28:50.396Z,27.52
2023-08-14T12:31:16.951Z,27.09
2023-08-14T12:33:45.196Z,27.13
2023-08-14T12:36:13.632Z,27.56
2023-08-14T12:38:40.138Z,27.86
2023-08-14T12:41:06.860Z,27.62
2023-08-14T12:43:40.371Z,27.59
2023-08-14T12:46:10.634Z,27.69
2023-08-14T12:48:37.534Z,27.83
2023-08-14T12:51:04.808Z,27.99
2023-08-14T12:53:31.429Z,28.00
2023-08-14T12:56:03.573Z,28.17
2023-08-14T12:58:31.106Z,28.16
2023-08-14T13:01:03.814Z,28.21
2023-08-14T13:03:36.526Z,28.23
2023-08-14T13:06:05.442Z,28.20
2023-08-14T13:08:32.105Z,28.23
2023-08-14T13:10:58.643Z,28.13
2023-08-14T13:13:28.130Z,28.16
2023-08-14T13:15:55.582Z,27.94
2023-08-14T13:18:22.805Z,27.70
2023-08-14T13:20:49.717Z,27.70
2023-08-14T13:23:17.002Z,27.54
2023-08-14T13:25:43.736Z,27.56
2023-08-14T13:28:10.453Z,27.56
2023-08-14T13:30:37.238Z,27.36
2023-08-14T13:33:04.249Z,27.30
2023-08-14T13:35:31.432Z,27.37
2023-08-14T13:37:59.402Z,27.31
2023-08-14T13:40:25.891Z,27.31
2023-08-14T13:42:52.533Z,27.40
2023-08-14T13:45:19.472Z,27.22
2023-08-14T13:47:53.859Z,27.05
2023-08-14T13:50:32.477Z,26.93
2023-08-14T13:53:04.055Z,26.80
2023-08-14T13:55:34.170Z,26.85
2023-08-14T13:58:01.625Z,26.94
2023-08-14T14:00:30.349Z,26.97
2023-08-14T14:02:58.860Z,27.03
2023-08-14T14:05:25.958Z,26.98
2023-08-14T14:07:55.810Z,26.91
2023-08-14T14:10:24.984Z,27.00
2023-08-14T14:15:21.754Z,26.94
2023-08-14T14:17:48.600Z,26.87
2023-08-14T14:20:16.825Z,26.99
2023-08-14T14:22:43.692Z,27.08
2023-08-14T14:25:10.938Z,27.06
2023-08-14T14:27:38.630Z,27.08
2023-08-14T14:30:05.915Z,27.10
2023-08-14T14:32:32.366Z,27.12
2023-08-14T14:34:58.979Z,27.08
2023-08-14T14:37:25.479Z,27.14
2023-08-14T14:39:51.902Z,27.16
2023-08-14T14:42:19.984Z,27.14
2023-08-14T14:44:48.146Z,27.28
2023-08-14T14:47:15.051Z,27.38
2023-08-14T14:49:41.577Z,27.31
2023-08-14T14:52:08.072Z,27.32
2023-08-14T14:54:34.576Z,27.44
2023-08-14T14:57:01.021Z,27.43
2023-08-14T14:59:27.516Z,27.60
2023-08-14T15:01:53.989Z,27.76
2023-08-14T15:04:20.442Z,27.83
2023-08-14T15:06:46.919Z,27.68
2023-08-14T15:09:13.621Z,27.19
2023-08-14T15:11:40.135Z,27.10
2023-08-14T15:14:06.570Z,27.18
2023-08-14T15:16:33.737Z,27.49
2023-08-14T15:19:00.463Z,27.66
2023-08-14T15:21:26.937Z,27.29
2023-08-14T15:23:53.469Z,27.44
2023-08-14T15:26:20.645Z,27.63
2023-08-14T15:28:47.103Z,27.71
2023-08-14T15:31:13.721Z,27.79
2023-08-14T15:33:40.319Z,27.74
2023-08-14T15:36:06.794Z,27.69
2023-08-14T15:38:33.296Z,27.59
2023-08-14T15:40:59.860Z,27.78
2023-08-14T15:43:26.843Z,27.73
2023-08-14T15:46:04.301Z,27.76
2023-08-14T15:48:31.062Z,27.96
2023-08-14T15:50:57.587Z,28.10
2023-08-14T15:53:24.069Z,28.04
2023-08-14T15:55:50.717Z,27.96
2023-08-14T15:58:17.572Z,28.03
2023-08-14T16:00:45.156Z,28.07
2023-08-14T16:03:12.275Z,28.02
2023-08-14T16:05:39.266Z,28.10
2023-08-14T16:08:06.540Z,28.11
2023-08-14T16:10:33.025Z,28.10
2023-08-14T16:12:59.570Z,28.18
2023-08-14T16:15:26.076Z,28.13
2023-08-14T16:17:52.651Z,28.04
2023-08-14T16:20:19.174Z,27.95
2023-08-14T16:22:45.686Z,27.72
2023-08-14T16:25:12.231Z,27.83
2023-08-14T16:27:38.749Z,27.93
2023-08-14T16:30:05.746Z,27.97
2023-08-14T16:32:32.335Z,28.01
2023-08-14T16:34:59.343Z,27.86
2023-08-14T16:37:25.928Z,27.89
2023-08-14T16:39:52.415Z,27.83
2023-08-14T16:42:18.992Z,27.87
2023-08-14T16:44:45.562Z,27.89
2023-08-14T16:47:11.989Z,27.88
2023-08-14T16:49:38.436Z,27.84
2023-08-14T16:52:05.221Z,27.81
2023-08-14T16:54:31.629Z,27.83
2023-08-14T16:56:58.121Z,27.74
2023-08-14T16:59:24.624Z,27.66
2023-08-14T17:01:51.127Z,27.73
2023-08-14T17:04:17.683Z,28.03
2023-08-14T17:06:44.251Z,28.22
2023-08-14T17:09:14.952Z,28.57
2023-08-14T17:11:41.959Z,28.35
2023-08-14T17:14:08.537Z,28.20
2023-08-14T17:16:35.168Z,28.42
2023-08-14T17:19:01.782Z,29.88
2023-08-14T17:21:28.224Z,29.35
2023-08-14T17:23:54.697Z,28.72
2023-08-14T17:26:21.147Z,28.46
2023-08-14T17:28:47.619Z,28.28
2023-08-14T17:31:15.813Z,28.09
2023-08-14T17:33:42.284Z,27.95
2023-08-14T17:36:08.821Z,27.89
2023-08-14T17:38:35.292Z,27.75
2023-08-14T17:41:01.940Z,27.49
2023-08-14T17:43:28.487Z,27.40
2023-08-14T17:45:56.270Z,27.35
2023-08-14T17:48:22.729Z,27.31
2023-08-14T17:50:51.736Z,27.38
2023-08-14T17:53:19.086Z,27.40
2023-08-14T17:55:45.568Z,27.35
2023-08-14T17:58:12.174Z,27.30
2023-08-14T18:00:38.665Z,27.23
2023-08-14T18:03:05.504Z,27.14
2023-08-14T18:05:32.048Z,27.09
2023-08-14T18:07:58.482Z,26.88
2023-08-14T18:10:24.941Z,26.74
2023-08-14T18:12:51.331Z,26.60
2023-08-14T18:15:18.860Z,26.42
2023-08-14T18:17:45.344Z,26.30
2023-08-14T18:20:12.003Z,26.23
2023-08-14T18:22:38.593Z,26.10
2023-08-14T18:25:05.406Z,25.99
2023-08-14T18:27:32.082Z,25.83
2023-08-14T18:29:58.598Z,25.68
2023-08-14T18:32:25.182Z,25.58
2023-08-14T18:34:51.939Z,25.42
2023-08-14T18:37:18.713Z,25.30
2023-08-14T18:39:45.383Z,25.17
2023-08-14T18:42:11.901Z,25.06
2023-08-14T18:44:38.345Z,24.95
2023-08-14T18:47:04.961Z,24.90
2023-08-14T18:49:32.764Z,24.82
2023-08-14T18:51:59.260Z,24.77
2023-08-14T18:54:26.046Z,24.64
2023-08-14T18:56:52.840Z,24.51
2023-08-14T18:59:23.683Z,24.36
2023-08-14T19:01:51.497Z,24.27
2023-08-14T19:04:25.650Z,24.20
2023-08-14T19:06:59.837Z,24.08
2023-08-14T19:09:26.312Z,23.95
2023-08-14T19:11:52.804Z,23.80
2023-08-14T19:14:19.413Z,23.71
2023-08-14T19:16:45.956Z,23.62
2023-08-14T19:19:12.390Z,23.50
2023-08-14T19:21:38.863Z,23.36
2023-08-14T19:24:05.790Z,23.27
2023-08-14T19:26:32.304Z,23.18
2023-08-14T19:29:01.312Z,23.08
2023-08-14T19:31:27.862Z,23.03
2023-08-14T19:33:59.367Z,22.96
2023-08-14T19:36:26.329Z,22.91
2023-08-14T19:38:52.751Z,22.87
2023-08-14T19:41:19.161Z,22.79
2023-08-14T19:43:45.665Z,22.63
2023-08-14T19:46:12.143Z,22.59
2023-08-14T19:48:38.580Z,22.52
2023-08-14T19:51:05.198Z,22.42
2023-08-14T19:53:31.745Z,22.32
2023-08-14T19:55:58.320Z,22.25
2023-08-14T19:58:24.792Z,22.19
2023-08-14T20:00:51.306Z,22.14
2023-08-14T20:03:17.837Z,22.06
2023-08-14T20:05:48.896Z,21.97
2023-08-14T20:08:15.803Z,21.93
2023-08-14T20:10:42.848Z,21.88
2023-08-14T20:13:09.484Z,21.81
2023-08-14T20:15:42.437Z,21.76
2023-08-14T20:18:08.938Z,21.68
2023-08-14T20:20:39.136Z,21.61
2023-08-14T20:23:05.591Z,21.55
2023-08-14T20:25:32.102Z,21.50
2023-08-14T20:27:58.772Z,21.43
2023-08-14T20:30:25.303Z,21.37
2023-08-14T20:32:51.820Z,21.30
2023-08-14T20:35:18.482Z,21.25
2023-08-14T20:37:45.019Z,21.26
2023-08-14T20:40:11.977Z,21.25
2023-08-14T20:42:38.756Z,21.19
2023-08-14T20:45:05.828Z,21.16
2023-08-14T20:47:32.270Z,21.10
2023-08-14T20:49:58.942Z,20.96
2023-08-14T20:52:25.463Z,20.91
2023-08-14T20:54:52.480Z,20.86
2023-08-14T20:57:19.695Z,20.85
2023-08-14T20:59:46.349Z,20.81
2023-08-14T21:02:12.923Z,20.76
2023-08-14T21:04:39.388Z,20.76
2023-08-14T21:07:06.154Z,20.74
2023-08-14T21:09:32.649Z,20.70
2023-08-14T21:11:59.900Z,20.67
2023-08-14T21:14:26.421Z,20.61
2023-08-14T21:16:52.945Z,20.51
2023-08-14T21:19:19.460Z,20.48
2023-08-14T21:21:46.900Z,20.45
2023-08-14T21:24:13.656Z,20.43
2023-08-14T21:26:40.228Z,20.38
2023-08-14T21:29:06.760Z,20.35
2023-08-14T21:31:34.333Z,20.32
2023-08-14T21:34:01.113Z,20.29
2023-08-14T21:36:27.644Z,20.23
2023-08-14T21:38:54.105Z,20.19
2023-08-14T21:41:20.603Z,20.14
2023-08-14T21:43:47.153Z,20.10
2023-08-14T21:46:13.743Z,20.01
2023-08-14T21:48:40.273Z,19.99
2023-08-14T21:51:06.845Z,19.99
2023-08-14T21:53:33.236Z,19.93
2023-08-14T21:55:59.684Z,19.91
2023-08-14T21:58:26.121Z,19.87
2023-08-14T22:00:52.675Z,19.81
2023-08-14T22:03:19.234Z,19.77
2023-08-14T22:05:45.750Z,19.74
2023-08-14T22:08:12.307Z,19.70
2023-08-14T22:10:38.796Z,19.65
2023-08-14T22:13:05.300Z,19.59
2023-08-14T22:15:44.548Z,19.56
2023-08-14T22:18:13.670Z,19.49
2023-08-14T22:20:40.910Z,19.43
2023-08-14T22:23:07.401Z,19.39
2023-08-14T22:25:33.898Z,19.42
2023-08-14T22:28:00.412Z,19.38
2023-08-14T22:30:26.898Z,19.37
2023-08-14T22:32:53.343Z,19.38
2023-08-14T22:35:19.813Z,19.33
2023-08-14T22:37:46.243Z,19.31
2023-08-14T22:40:12.675Z,19.31
2023-08-14T22:42:39.169Z,19.29
2023-08-14T22:45:06.503Z,19.26
2023-08-14T22:47:32.998Z,19.22
2023-08-14T22:49:59.524Z,19.18
2023-08-14T22:52:26.949Z,19.16
2023-08-14T22:54:53.341Z,19.15
2023-08-14T22:57:20.051Z,19.15
2023-08-14T22:59:46.740Z,19.10
2023-08-14T23:02:13.648Z,19.03
2023-08-14T23:04:40.099Z,19.04
2023-08-14T23:07:06.642Z,19.02
2023-08-14T23:09:33.147Z,19.06
2023-08-14T23:12:01.773Z,19.06
2023-08-14T23:14:28.262Z,19.06
2023-08-14T23:16:54.769Z,19.06
2023-08-14T23:19:21.552Z,19.02
2023-08-14T23:21:48.074Z,19.00
2023-08-14T23:24:14.812Z,19.02
2023-08-14T23:26:41.262Z,19.00
2023-08-14T23:29:07.796Z,19.00
2023-08-14T23:31:34.346Z,18.84
2023-08-14T23:34:00.960Z,18.80
2023-08-14T23:36:27.376Z,18.81
2023-08-14T23:38:53.946Z,18.83
2023-08-14T23:41:20.377Z,18.88
2023-08-14T23:43:46.814Z,18.88
2023-08-14T23:46:13.663Z,18.92
2023-08-14T23:48:40.149Z,18.92
2023-08-14T23:51:06.678Z,18.92
2023-08-14T23:53:33.150Z,18.93
2023-08-14T23:55:59.670Z,18.93
2023-08-14T23:58:26.134Z,18.95
